sensor_id;sensor_type;location;lat;lon;timestamp;P1;durP1;ratioP1;P2;durP2;ratioP2
3795;SDS011;1913;50.660;7.834;2023-02-26T00:01:18;8.03;;;2.87;;
3795;SDS011;1913;50.660;7.834;2023-02-26T00:03:49;9.33;;;2.40;;
3795;SDS011;1913;50.660;7.834;2023-02-26T00:06:19;5.13;;;2.33;;
3795;SDS011;1913;50.660;7.834;2023-02-26T00:08:44;6.00;;;2.37;;
3795;SDS011;1913;50.660;7.834;2023-02-26T00:11:10;5.60;;;2.87;;
3795;SDS011;1913;50.660;7.834;2023-02-26T00:13:37;5.97;;;2.43;;
3795;SDS011;1913;50.660;7.834;2023-02-26T00:16:08;7.83;;;2.30;;
3795;SDS011;1913;50.660;7.834;2023-02-26T00:18:41;4.93;;;2.40;;
3795;SDS011;1913;50.660;7.834;2023-02-26T00:21:07;9.80;;;2.53;;
3795;SDS011;1913;50.660;7.834;2023-02-26T00:23:40;12.93;;;2.70;;
3795;SDS011;1913;50.660;7.834;2023-02-26T00:26:06;4.00;;;2.30;;
3795;SDS011;1913;50.660;7.834;2023-02-26T00:28:31;4.40;;;2.80;;
3795;SDS011;1913;50.660;7.834;2023-02-26T00:30:57;5.53;;;2.60;;
3795;SDS011;1913;50.660;7.834;2023-02-26T00:33:23;5.70;;;2.77;;
3795;SDS011;1913;50.660;7.834;2023-02-26T00:35:49;5.13;;;2.67;;
3795;SDS011;1913;50.660;7.834;2023-02-26T00:38:25;11.43;;;2.60;;
3795;SDS011;1913;50.660;7.834;2023-02-26T00:40:54;6.37;;;2.83;;
3795;SDS011;1913;50.660;7.834;2023-02-26T00:43:21;5.50;;;3.47;;
3795;SDS011;1913;50.660;7.834;2023-02-26T00:51:31;5.33;;;2.40;;
3795;SDS011;1913;50.660;7.834;2023-02-26T00:54:11;4.43;;;2.30;;
3795;SDS011;1913;50.660;7.834;2023-02-26T00:56:41;7.63;;;3.03;;
3795;SDS011;1913;50.660;7.834;2023-02-26T00:59:06;6.10;;;3.30;;
3795;SDS011;1913;50.660;7.834;2023-02-26T01:01:32;3.80;;;2.70;;
3795;SDS011;1913;50.660;7.834;2023-02-26T01:03:57;7.20;;;3.00;;
3795;SDS011;1913;50.660;7.834;2023-02-26T01:06:24;4.37;;;3.60;;
3795;SDS011;1913;50.660;7.834;2023-02-26T01:11:24;8.80;;;4.53;;
3795;SDS011;1913;50.660;7.834;2023-02-26T01:13:49;8.30;;;5.77;;
3795;SDS011;1913;50.660;7.834;2023-02-26T01:16:16;7.90;;;4.93;;
3795;SDS011;1913;50.660;7.834;2023-02-26T01:18:49;11.87;;;4.70;;
3795;SDS011;1913;50.660;7.834;2023-02-26T01:21:33;6.63;;;3.83;;
3795;SDS011;1913;50.660;7.834;2023-02-26T01:24:04;9.00;;;3.60;;
3795;SDS011;1913;50.660;7.834;2023-02-26T01:26:34;5.90;;;3.57;;
3795;SDS011;1913;50.660;7.834;2023-02-26T01:28:59;8.80;;;3.63;;
3795;SDS011;1913;50.660;7.834;2023-02-26T01:34:02;6.27;;;3.93;;
3795;SDS011;1913;50.660;7.834;2023-02-26T01:36:33;9.70;;;3.50;;
3795;SDS011;1913;50.660;7.834;2023-02-26T01:41:45;7.43;;;4.13;;
3795;SDS011;1913;50.660;7.834;2023-02-26T01:44:33;6.23;;;3.70;;
3795;SDS011;1913;50.660;7.834;2023-02-26T01:47:17;6.03;;;3.70;;
3795;SDS011;1913;50.660;7.834;2023-02-26T01:49:45;4.53;;;3.50;;
3795;SDS011;1913;50.660;7.834;2023-02-26T01:54:58;4.80;;;3.50;;
3795;SDS011;1913;50.660;7.834;2023-02-26T01:57:24;5.40;;;3.93;;
3795;SDS011;1913;50.660;7.834;2023-02-26T01:59:50;4.40;;;3.20;;
3795;SDS011;1913;50.660;7.834;2023-02-26T02:02:20;5.23;;;3.20;;
3795;SDS011;1913;50.660;7.834;2023-02-26T02:04:47;7.13;;;2.87;;
3795;SDS011;1913;50.660;7.834;2023-02-26T02:07:14;6.00;;;3.20;;
3795;SDS011;1913;50.660;7.834;2023-02-26T02:09:39;4.50;;;3.10;;
3795;SDS011;1913;50.660;7.834;2023-02-26T02:12:09;7.63;;;3.47;;
3795;SDS011;1913;50.660;7.834;2023-02-26T02:22:49;4.00;;;2.93;;
3795;SDS011;1913;50.660;7.834;2023-02-26T02:30:55;7.87;;;2.60;;
3795;SDS011;1913;50.660;7.834;2023-02-26T02:33:27;3.00;;;2.40;;
3795;SDS011;1913;50.660;7.834;2023-02-26T02:36:00;5.80;;;2.50;;
3795;SDS011;1913;50.660;7.834;2023-02-26T02:38:35;4.30;;;2.60;;
3795;SDS011;1913;50.660;7.834;2023-02-26T02:41:10;3.90;;;2.30;;
3795;SDS011;1913;50.660;7.834;2023-02-26T02:43:41;6.97;;;2.43;;
3795;SDS011;1913;50.660;7.834;2023-02-26T02:46:16;3.20;;;2.30;;
3795;SDS011;1913;50.660;7.834;2023-02-26T02:48:52;3.30;;;2.13;;
3795;SDS011;1913;50.660;7.834;2023-02-26T02:51:36;6.20;;;2.70;;
3795;SDS011;1913;50.660;7.834;2023-02-26T02:54:15;4.13;;;2.37;;
3795;SDS011;1913;50.660;7.834;2023-02-26T02:57:05;5.37;;;2.23;;
3795;SDS011;1913;50.660;7.834;2023-02-26T02:59:36;4.43;;;3.00;;
3795;SDS011;1913;50.660;7.834;2023-02-26T03:04:38;5.43;;;2.50;;
3795;SDS011;1913;50.660;7.834;2023-02-26T03:07:05;4.93;;;2.30;;
3795;SDS011;1913;50.660;7.834;2023-02-26T03:09:31;2.47;;;2.27;;
3795;SDS011;1913;50.660;7.834;2023-02-26T03:11:57;3.40;;;2.60;;
3795;SDS011;1913;50.660;7.834;2023-02-26T03:14:22;5.67;;;2.43;;
3795;SDS011;1913;50.660;7.834;2023-02-26T03:19:28;5.73;;;2.30;;
3795;SDS011;1913;50.660;7.834;2023-02-26T03:24:49;3.77;;;2.07;;
3795;SDS011;1913;50.660;7.834;2023-02-26T03:32:47;4.70;;;2.70;;
3795;SDS011;1913;50.660;7.834;2023-02-26T03:35:20;7.87;;;2.93;;
3795;SDS011;1913;50.660;7.834;2023-02-26T03:37:55;3.20;;;2.13;;
3795;SDS011;1913;50.660;7.834;2023-02-26T03:40:34;6.00;;;2.47;;
3795;SDS011;1913;50.660;7.834;2023-02-26T03:43:03;7.30;;;2.60;;
3795;SDS011;1913;50.660;7.834;2023-02-26T03:45:34;9.80;;;2.47;;
3795;SDS011;1913;50.660;7.834;2023-02-26T03:48:03;7.13;;;2.63;;
3795;SDS011;1913;50.660;7.834;2023-02-26T03:50:36;3.37;;;2.50;;
3795;SDS011;1913;50.660;7.834;2023-02-26T03:53:09;6.20;;;2.63;;
3795;SDS011;1913;50.660;7.834;2023-02-26T03:58:14;5.57;;;2.30;;
3795;SDS011;1913;50.660;7.834;2023-02-26T04:00:40;10.60;;;3.13;;
3795;SDS011;1913;50.660;7.834;2023-02-26T04:05:43;7.13;;;2.93;;
3795;SDS011;1913;50.660;7.834;2023-02-26T04:08:13;4.50;;;2.60;;
3795;SDS011;1913;50.660;7.834;2023-02-26T04:10:44;4.67;;;2.90;;
3795;SDS011;1913;50.660;7.834;2023-02-26T04:13:16;5.20;;;2.37;;
3795;SDS011;1913;50.660;7.834;2023-02-26T04:15:42;6.00;;;2.60;;
3795;SDS011;1913;50.660;7.834;2023-02-26T04:18:07;4.17;;;2.20;;
3795;SDS011;1913;50.660;7.834;2023-02-26T04:20:33;5.73;;;2.70;;
3795;SDS011;1913;50.660;7.834;2023-02-26T04:22:58;3.87;;;2.70;;
3795;SDS011;1913;50.660;7.834;2023-02-26T04:25:24;6.60;;;2.90;;
3795;SDS011;1913;50.660;7.834;2023-02-26T04:27:49;4.47;;;2.90;;
3795;SDS011;1913;50.660;7.834;2023-02-26T04:30:15;5.70;;;2.90;;
3795;SDS011;1913;50.660;7.834;2023-02-26T04:32:40;5.47;;;2.70;;
3795;SDS011;1913;50.660;7.834;2023-02-26T04:35:06;6.33;;;3.10;;
3795;SDS011;1913;50.660;7.834;2023-02-26T04:37:31;7.50;;;2.90;;
3795;SDS011;1913;50.660;7.834;2023-02-26T04:39:57;5.23;;;2.70;;
3795;SDS011;1913;50.660;7.834;2023-02-26T04:42:22;6.93;;;3.10;;
3795;SDS011;1913;50.660;7.834;2023-02-26T04:44:48;7.63;;;3.40;;
3795;SDS011;1913;50.660;7.834;2023-02-26T04:47:13;9.10;;;2.90;;
3795;SDS011;1913;50.660;7.834;2023-02-26T04:49:39;4.97;;;3.40;;
3795;SDS011;1913;50.660;7.834;2023-02-26T04:52:04;5.50;;;2.60;;
3795;SDS011;1913;50.660;7.834;2023-02-26T04:54:29;8.63;;;2.80;;
3795;SDS011;1913;50.660;7.834;2023-02-26T04:56:55;6.40;;;3.20;;
3795;SDS011;1913;50.660;7.834;2023-02-26T04:59:20;5.13;;;3.27;;
3795;SDS011;1913;50.660;7.834;2023-02-26T05:01:46;7.63;;;3.00;;
3795;SDS011;1913;50.660;7.834;2023-02-26T05:04:11;6.03;;;3.63;;
3795;SDS011;1913;50.660;7.834;2023-02-26T05:06:37;6.00;;;3.10;;
3795;SDS011;1913;50.660;7.834;2023-02-26T05:09:03;6.23;;;3.20;;
3795;SDS011;1913;50.660;7.834;2023-02-26T05:11:29;11.13;;;3.70;;
3795;SDS011;1913;50.660;7.834;2023-02-26T05:13:54;6.23;;;3.43;;
3795;SDS011;1913;50.660;7.834;2023-02-26T05:16:20;10.93;;;3.70;;
3795;SDS011;1913;50.660;7.834;2023-02-26T05:18:45;9.23;;;3.60;;
3795;SDS011;1913;50.660;7.834;2023-02-26T05:21:11;6.70;;;3.40;;
3795;SDS011;1913;50.660;7.834;2023-02-26T05:23:36;8.17;;;3.50;;
3795;SDS011;1913;50.660;7.834;2023-02-26T05:26:02;4.77;;;3.40;;
3795;SDS011;1913;50.660;7.834;2023-02-26T05:28:27;10.33;;;3.67;;
3795;SDS011;1913;50.660;7.834;2023-02-26T05:30:54;13.70;;;3.80;;
3795;SDS011;1913;50.660;7.834;2023-02-26T05:33:20;6.57;;;4.00;;
3795;SDS011;1913;50.660;7.834;2023-02-26T05:35:46;7.63;;;3.40;;
3795;SDS011;1913;50.660;7.834;2023-02-26T05:38:12;7.57;;;3.57;;
3795;SDS011;1913;50.660;7.834;2023-02-26T05:40:37;5.70;;;3.10;;
3795;SDS011;1913;50.660;7.834;2023-02-26T05:43:03;7.17;;;4.13;;
3795;SDS011;1913;50.660;7.834;2023-02-26T05:45:28;6.30;;;4.33;;
3795;SDS011;1913;50.660;7.834;2023-02-26T05:47:53;5.77;;;4.07;;
3795;SDS011;1913;50.660;7.834;2023-02-26T05:50:20;8.43;;;4.13;;
3795;SDS011;1913;50.660;7.834;2023-02-26T05:52:46;8.67;;;4.20;;
3795;SDS011;1913;50.660;7.834;2023-02-26T05:55:12;8.50;;;4.00;;
3795;SDS011;1913;50.660;7.834;2023-02-26T05:57:37;6.63;;;4.10;;
3795;SDS011;1913;50.660;7.834;2023-02-26T06:00:03;6.47;;;3.40;;
3795;SDS011;1913;50.660;7.834;2023-02-26T06:02:30;12.63;;;4.00;;
3795;SDS011;1913;50.660;7.834;2023-02-26T06:04:56;9.00;;;4.20;;
3795;SDS011;1913;50.660;7.834;2023-02-26T06:07:21;9.73;;;5.20;;
3795;SDS011;1913;50.660;7.834;2023-02-26T06:09:46;6.90;;;4.37;;
3795;SDS011;1913;50.660;7.834;2023-02-26T06:12:12;11.20;;;4.07;;
3795;SDS011;1913;50.660;7.834;2023-02-26T06:14:37;12.40;;;4.27;;
3795;SDS011;1913;50.660;7.834;2023-02-26T06:17:03;8.10;;;4.13;;
3795;SDS011;1913;50.660;7.834;2023-02-26T06:19:29;10.00;;;5.10;;
3795;SDS011;1913;50.660;7.834;2023-02-26T06:21:55;7.63;;;4.80;;
3795;SDS011;1913;50.660;7.834;2023-02-26T06:24:20;9.10;;;4.80;;
3795;SDS011;1913;50.660;7.834;2023-02-26T06:26:46;9.20;;;5.10;;
3795;SDS011;1913;50.660;7.834;2023-02-26T06:29:11;9.37;;;4.70;;
3795;SDS011;1913;50.660;7.834;2023-02-26T06:31:36;8.20;;;4.47;;
3795;SDS011;1913;50.660;7.834;2023-02-26T06:34:02;10.63;;;5.80;;
3795;SDS011;1913;50.660;7.834;2023-02-26T06:36:27;6.70;;;4.37;;
3795;SDS011;1913;50.660;7.834;2023-02-26T06:38:53;9.43;;;4.70;;
3795;SDS011;1913;50.660;7.834;2023-02-26T06:41:18;6.27;;;4.30;;
3795;SDS011;1913;50.660;7.834;2023-02-26T06:43:43;10.50;;;4.63;;
3795;SDS011;1913;50.660;7.834;2023-02-26T06:46:09;7.47;;;4.77;;
3795;SDS011;1913;50.660;7.834;2023-02-26T06:48:35;10.13;;;5.10;;
3795;SDS011;1913;50.660;7.834;2023-02-26T06:51:00;11.93;;;5.80;;
3795;SDS011;1913;50.660;7.834;2023-02-26T06:53:26;18.03;;;7.20;;
3795;SDS011;1913;50.660;7.834;2023-02-26T06:55:51;13.70;;;5.90;;
3795;SDS011;1913;50.660;7.834;2023-02-26T06:58:17;10.27;;;5.40;;
3795;SDS011;1913;50.660;7.834;2023-02-26T07:00:44;14.93;;;6.67;;
3795;SDS011;1913;50.660;7.834;2023-02-26T07:03:13;10.10;;;5.40;;
3795;SDS011;1913;50.660;7.834;2023-02-26T07:05:40;7.57;;;4.77;;
3795;SDS011;1913;50.660;7.834;2023-02-26T07:08:06;11.60;;;6.07;;
3795;SDS011;1913;50.660;7.834;2023-02-26T07:10:32;11.33;;;5.17;;
3795;SDS011;1913;50.660;7.834;2023-02-26T07:12:58;10.30;;;4.50;;
3795;SDS011;1913;50.660;7.834;2023-02-26T07:15:23;16.17;;;4.63;;
3795;SDS011;1913;50.660;7.834;2023-02-26T07:17:49;7.17;;;4.37;;
3795;SDS011;1913;50.660;7.834;2023-02-26T07:20:14;9.10;;;5.00;;
3795;SDS011;1913;50.660;7.834;2023-02-26T07:22:42;9.37;;;4.20;;
3795;SDS011;1913;50.660;7.834;2023-02-26T07:25:08;6.53;;;3.60;;
3795;SDS011;1913;50.660;7.834;2023-02-26T07:27:34;5.50;;;4.00;;
3795;SDS011;1913;50.660;7.834;2023-02-26T07:29:59;8.03;;;4.07;;
3795;SDS011;1913;50.660;7.834;2023-02-26T07:32:25;7.50;;;3.50;;
3795;SDS011;1913;50.660;7.834;2023-02-26T07:34:51;8.77;;;3.60;;
3795;SDS011;1913;50.660;7.834;2023-02-26T07:37:16;7.60;;;3.20;;
3795;SDS011;1913;50.660;7.834;2023-02-26T07:39:43;5.10;;;3.63;;
3795;SDS011;1913;50.660;7.834;2023-02-26T07:42:08;9.53;;;3.27;;
3795;SDS011;1913;50.660;7.834;2023-02-26T07:44:34;5.17;;;2.83;;
3795;SDS011;1913;50.660;7.834;2023-02-26T07:46:59;7.27;;;3.30;;
3795;SDS011;1913;50.660;7.834;2023-02-26T07:49:28;4.07;;;2.60;;
3795;SDS011;1913;50.660;7.834;2023-02-26T07:51:54;9.10;;;3.10;;
3795;SDS011;1913;50.660;7.834;2023-02-26T07:54:19;3.30;;;2.17;;
3795;SDS011;1913;50.660;7.834;2023-02-26T07:56:44;3.13;;;2.83;;
3795;SDS011;1913;50.660;7.834;2023-02-26T07:59:10;5.77;;;2.70;;
3795;SDS011;1913;50.660;7.834;2023-02-26T08:01:36;5.43;;;2.73;;
3795;SDS011;1913;50.660;7.834;2023-02-26T08:04:02;5.10;;;3.40;;
3795;SDS011;1913;50.660;7.834;2023-02-26T08:06:28;4.10;;;3.00;;
3795;SDS011;1913;50.660;7.834;2023-02-26T08:08:54;8.83;;;2.80;;
3795;SDS011;1913;50.660;7.834;2023-02-26T08:11:19;5.33;;;2.30;;
3795;SDS011;1913;50.660;7.834;2023-02-26T08:13:45;6.00;;;2.53;;
3795;SDS011;1913;50.660;7.834;2023-02-26T08:16:10;3.30;;;2.90;;
3795;SDS011;1913;50.660;7.834;2023-02-26T08:18:36;5.73;;;2.27;;
3795;SDS011;1913;50.660;7.834;2023-02-26T08:21:01;2.87;;;1.87;;
3795;SDS011;1913;50.660;7.834;2023-02-26T08:23:27;6.33;;;2.30;;
3795;SDS011;1913;50.660;7.834;2023-02-26T08:26:26;4.43;;;1.80;;
3795;SDS011;1913;50.660;7.834;2023-02-26T08:28:45;2.73;;;1.77;;
3795;SDS011;1913;50.660;7.834;2023-02-26T08:31:11;3.50;;;2.07;;
3795;SDS011;1913;50.660;7.834;2023-02-26T08:33:37;1.97;;;1.77;;
3795;SDS011;1913;50.660;7.834;2023-02-26T08:36:03;2.70;;;2.10;;
3795;SDS011;1913;50.660;7.834;2023-02-26T08:38:29;3.17;;;1.90;;
3795;SDS011;1913;50.660;7.834;2023-02-26T08:40:55;3.63;;;1.73;;
3795;SDS011;1913;50.660;7.834;2023-02-26T08:43:21;2.03;;;1.57;;
3795;SDS011;1913;50.660;7.834;2023-02-26T08:45:47;3.10;;;1.80;;
3795;SDS011;1913;50.660;7.834;2023-02-26T08:48:13;2.23;;;1.57;;
3795;SDS011;1913;50.660;7.834;2023-02-26T08:50:39;2.53;;;1.70;;
3795;SDS011;1913;50.660;7.834;2023-02-26T08:53:05;1.80;;;1.43;;
3795;SDS011;1913;50.660;7.834;2023-02-26T08:55:31;2.80;;;1.73;;
3795;SDS011;1913;50.660;7.834;2023-02-26T08:57:56;3.23;;;2.07;;
3795;SDS011;1913;50.660;7.834;2023-02-26T09:00:22;2.70;;;1.57;;
3795;SDS011;1913;50.660;7.834;2023-02-26T09:02:48;3.10;;;1.60;;
3795;SDS011;1913;50.660;7.834;2023-02-26T09:05:13;2.10;;;1.70;;
3795;SDS011;1913;50.660;7.834;2023-02-26T09:07:39;1.77;;;1.40;;
3795;SDS011;1913;50.660;7.834;2023-02-26T09:10:05;5.10;;;1.70;;
3795;SDS011;1913;50.660;7.834;2023-02-26T09:12:32;1.57;;;1.47;;
3795;SDS011;1913;50.660;7.834;2023-02-26T09:15:01;1.40;;;1.30;;
3795;SDS011;1913;50.660;7.834;2023-02-26T09:17:29;4.83;;;1.40;;
3795;SDS011;1913;50.660;7.834;2023-02-26T09:19:55;5.90;;;1.53;;
3795;SDS011;1913;50.660;7.834;2023-02-26T09:22:20;2.63;;;1.47;;
3795;SDS011;1913;50.660;7.834;2023-02-26T09:24:46;2.90;;;1.80;;
3795;SDS011;1913;50.660;7.834;2023-02-26T09:27:11;2.67;;;1.60;;
3795;SDS011;1913;50.660;7.834;2023-02-26T09:29:37;2.30;;;1.37;;
3795;SDS011;1913;50.660;7.834;2023-02-26T09:32:02;3.60;;;1.47;;
3795;SDS011;1913;50.660;7.834;2023-02-26T09:34:32;1.73;;;1.30;;
3795;SDS011;1913;50.660;7.834;2023-02-26T09:37:05;2.40;;;1.60;;
3795;SDS011;1913;50.660;7.834;2023-02-26T09:39:32;2.10;;;1.60;;
3795;SDS011;1913;50.660;7.834;2023-02-26T09:42:01;2.27;;;1.60;;
3795;SDS011;1913;50.660;7.834;2023-02-26T09:44:36;2.70;;;1.20;;
3795;SDS011;1913;50.660;7.834;2023-02-26T09:52:31;2.27;;;1.50;;
3795;SDS011;1913;50.660;7.834;2023-02-26T09:55:08;1.63;;;1.23;;
3795;SDS011;1913;50.660;7.834;2023-02-26T09:57:46;1.50;;;1.00;;
3795;SDS011;1913;50.660;7.834;2023-02-26T10:06:04;3.37;;;2.13;;
3795;SDS011;1913;50.660;7.834;2023-02-26T10:08:33;1.63;;;1.10;;
3795;SDS011;1913;50.660;7.834;2023-02-26T10:11:11;2.70;;;1.47;;
3795;SDS011;1913;50.660;7.834;2023-02-26T10:16:21;1.70;;;1.10;;
3795;SDS011;1913;50.660;7.834;2023-02-26T10:18:54;4.70;;;1.00;;
3795;SDS011;1913;50.660;7.834;2023-02-26T10:24:13;2.03;;;1.20;;
3795;SDS011;1913;50.660;7.834;2023-02-26T10:26:44;1.07;;;0.90;;
3795;SDS011;1913;50.660;7.834;2023-02-26T10:29:24;3.93;;;1.40;;
3795;SDS011;1913;50.660;7.834;2023-02-26T10:34:30;5.40;;;1.30;;
3795;SDS011;1913;50.660;7.834;2023-02-26T10:39:47;1.30;;;1.00;;
3795;SDS011;1913;50.660;7.834;2023-02-26T10:50:53;2.20;;;1.10;;
3795;SDS011;1913;50.660;7.834;2023-02-26T10:53:23;9.50;;;1.17;;
3795;SDS011;1913;50.660;7.834;2023-02-26T10:55:56;1.20;;;1.10;;
3795;SDS011;1913;50.660;7.834;2023-02-26T10:58:29;1.67;;;1.17;;
3795;SDS011;1913;50.660;7.834;2023-02-26T11:00:55;1.20;;;1.00;;
3795;SDS011;1913;50.660;7.834;2023-02-26T11:05:52;2.00;;;1.33;;
3795;SDS011;1913;50.660;7.834;2023-02-26T11:08:19;1.77;;;1.10;;
3795;SDS011;1913;50.660;7.834;2023-02-26T11:10:51;4.53;;;1.20;;
3795;SDS011;1913;50.660;7.834;2023-02-26T11:13:20;1.33;;;1.10;;
3795;SDS011;1913;50.660;7.834;2023-02-26T11:15:48;1.63;;;1.20;;
3795;SDS011;1913;50.660;7.834;2023-02-26T11:18:18;0.90;;;0.73;;
3795;SDS011;1913;50.660;7.834;2023-02-26T11:20:47;1.57;;;1.20;;
3795;SDS011;1913;50.660;7.834;2023-02-26T11:23:15;2.20;;;1.07;;
3795;SDS011;1913;50.660;7.834;2023-02-26T11:25:43;2.50;;;1.10;;
3795;SDS011;1913;50.660;7.834;2023-02-26T11:28:34;1.87;;;1.10;;
3795;SDS011;1913;50.660;7.834;2023-02-26T11:31:00;4.23;;;1.10;;
3795;SDS011;1913;50.660;7.834;2023-02-26T11:33:39;3.20;;;1.10;;
3795;SDS011;1913;50.660;7.834;2023-02-26T11:36:10;3.20;;;1.20;;
3795;SDS011;1913;50.660;7.834;2023-02-26T11:38:39;1.10;;;1.00;;
3795;SDS011;1913;50.660;7.834;2023-02-26T11:41:05;1.70;;;1.17;;
3795;SDS011;1913;50.660;7.834;2023-02-26T11:43:45;2.70;;;0.90;;
3795;SDS011;1913;50.660;7.834;2023-02-26T11:46:13;1.53;;;1.43;;
3795;SDS011;1913;50.660;7.834;2023-02-26T11:48:41;11.10;;;1.97;;
3795;SDS011;1913;50.660;7.834;2023-02-26T11:51:17;1.53;;;1.10;;
3795;SDS011;1913;50.660;7.834;2023-02-26T11:56:40;4.60;;;1.20;;
3795;SDS011;1913;50.660;7.834;2023-02-26T11:59:12;1.57;;;1.40;;
3795;SDS011;1913;50.660;7.834;2023-02-26T12:01:42;1.70;;;1.60;;
3795;SDS011;1913;50.660;7.834;2023-02-26T12:04:08;2.70;;;0.90;;
3795;SDS011;1913;50.660;7.834;2023-02-26T12:06:36;1.47;;;1.23;;
3795;SDS011;1913;50.660;7.834;2023-02-26T12:09:02;2.80;;;1.20;;
3795;SDS011;1913;50.660;7.834;2023-02-26T12:14:18;1.47;;;1.27;;
3795;SDS011;1913;50.660;7.834;2023-02-26T12:33:21;1.57;;;1.20;;
3795;SDS011;1913;50.660;7.834;2023-02-26T12:36:17;1.57;;;1.27;;
3795;SDS011;1913;50.660;7.834;2023-02-26T12:39:29;2.20;;;1.00;;
3795;SDS011;1913;50.660;7.834;2023-02-26T12:50:31;2.40;;;1.70;;
3795;SDS011;1913;50.660;7.834;2023-02-26T13:03:50;1.63;;;1.00;;
3795;SDS011;1913;50.660;7.834;2023-02-26T13:09:23;2.60;;;1.10;;
3795;SDS011;1913;50.660;7.834;2023-02-26T13:12:38;7.70;;;1.07;;
3795;SDS011;1913;50.660;7.834;2023-02-26T13:18:19;2.50;;;1.30;;
3795;SDS011;1913;50.660;7.834;2023-02-26T13:20:58;1.40;;;1.23;;
3795;SDS011;1913;50.660;7.834;2023-02-26T13:23:31;1.03;;;0.90;;
3795;SDS011;1913;50.660;7.834;2023-02-26T13:26:01;3.37;;;1.30;;
3795;SDS011;1913;50.660;7.834;2023-02-26T13:31:03;1.60;;;0.97;;
3795;SDS011;1913;50.660;7.834;2023-02-26T13:33:42;4.60;;;1.30;;
3795;SDS011;1913;50.660;7.834;2023-02-26T13:36:10;2.37;;;1.00;;
3795;SDS011;1913;50.660;7.834;2023-02-26T13:47:19;3.17;;;1.40;;
3795;SDS011;1913;50.660;7.834;2023-02-26T13:52:28;2.00;;;1.30;;
3795;SDS011;1913;50.660;7.834;2023-02-26T13:54:56;3.10;;;1.20;;
3795;SDS011;1913;50.660;7.834;2023-02-26T14:00:27;1.10;;;1.00;;
3795;SDS011;1913;50.660;7.834;2023-02-26T14:02:58;1.50;;;1.20;;
3795;SDS011;1913;50.660;7.834;2023-02-26T14:06:06;1.30;;;1.20;;
3795;SDS011;1913;50.660;7.834;2023-02-26T14:11:25;2.60;;;1.43;;
3795;SDS011;1913;50.660;7.834;2023-02-26T14:14:12;3.70;;;2.03;;
3795;SDS011;1913;50.660;7.834;2023-02-26T14:16:40;2.00;;;1.40;;
3795;SDS011;1913;50.660;7.834;2023-02-26T14:24:12;1.30;;;1.20;;
3795;SDS011;1913;50.660;7.834;2023-02-26T14:26:38;3.23;;;2.33;;
3795;SDS011;1913;50.660;7.834;2023-02-26T14:29:14;2.33;;;1.40;;
3795;SDS011;1913;50.660;7.834;2023-02-26T14:34:56;1.20;;;1.10;;
3795;SDS011;1913;50.660;7.834;2023-02-26T14:37:24;2.30;;;1.40;;
3795;SDS011;1913;50.660;7.834;2023-02-26T14:45:22;1.30;;;1.20;;
3795;SDS011;1913;50.660;7.834;2023-02-26T14:48:07;5.03;;;1.33;;
3795;SDS011;1913;50.660;7.834;2023-02-26T14:50:47;2.10;;;1.07;;
3795;SDS011;1913;50.660;7.834;2023-02-26T14:56:03;1.60;;;1.10;;
3795;SDS011;1913;50.660;7.834;2023-02-26T14:58:48;2.93;;;0.90;;
3795;SDS011;1913;50.660;7.834;2023-02-26T15:01:38;1.30;;;1.20;;
3795;SDS011;1913;50.660;7.834;2023-02-26T15:10:01;2.10;;;1.40;;
3795;SDS011;1913;50.660;7.834;2023-02-26T15:23:45;2.27;;;1.80;;
3795;SDS011;1913;50.660;7.834;2023-02-26T15:26:18;2.23;;;1.57;;
3795;SDS011;1913;50.660;7.834;2023-02-26T15:29:04;2.00;;;1.33;;
3795;SDS011;1913;50.660;7.834;2023-02-26T15:31:40;3.50;;;1.37;;
3795;SDS011;1913;50.660;7.834;2023-02-26T15:34:11;1.00;;;1.00;;
3795;SDS011;1913;50.660;7.834;2023-02-26T15:36:39;1.87;;;1.20;;
3795;SDS011;1913;50.660;7.834;2023-02-26T15:39:08;1.80;;;1.20;;
3795;SDS011;1913;50.660;7.834;2023-02-26T15:41:37;2.10;;;1.30;;
3795;SDS011;1913;50.660;7.834;2023-02-26T15:44:22;2.93;;;1.13;;
3795;SDS011;1913;50.660;7.834;2023-02-26T15:46:54;1.77;;;1.10;;
3795;SDS011;1913;50.660;7.834;2023-02-26T15:49:35;1.00;;;0.90;;
3795;SDS011;1913;50.660;7.834;2023-02-26T15:52:19;1.47;;;1.13;;
3795;SDS011;1913;50.660;7.834;2023-02-26T15:54:58;2.20;;;1.50;;
3795;SDS011;1913;50.660;7.834;2023-02-26T15:57:32;1.87;;;1.20;;
3795;SDS011;1913;50.660;7.834;2023-02-26T16:00:06;1.50;;;1.07;;
3795;SDS011;1913;50.660;7.834;2023-02-26T16:02:35;1.73;;;0.90;;
3795;SDS011;1913;50.660;7.834;2023-02-26T16:05:02;1.57;;;0.97;;
3795;SDS011;1913;50.660;7.834;2023-02-26T16:07:28;1.97;;;1.10;;
3795;SDS011;1913;50.660;7.834;2023-02-26T16:09:54;1.90;;;0.90;;
3795;SDS011;1913;50.660;7.834;2023-02-26T16:12:47;2.10;;;1.10;;
3795;SDS011;1913;50.660;7.834;2023-02-26T16:15:49;5.00;;;1.50;;
3795;SDS011;1913;50.660;7.834;2023-02-26T16:18:21;2.50;;;0.90;;
3795;SDS011;1913;50.660;7.834;2023-02-26T16:20:55;1.67;;;1.00;;
3795;SDS011;1913;50.660;7.834;2023-02-26T16:23:35;3.33;;;0.83;;
3795;SDS011;1913;50.660;7.834;2023-02-26T16:26:11;2.53;;;1.10;;
3795;SDS011;1913;50.660;7.834;2023-02-26T16:28:43;2.67;;;1.40;;
3795;SDS011;1913;50.660;7.834;2023-02-26T16:31:19;1.47;;;0.90;;
3795;SDS011;1913;50.660;7.834;2023-02-26T16:34:00;1.10;;;1.00;;
3795;SDS011;1913;50.660;7.834;2023-02-26T16:36:29;0.93;;;0.90;;
3795;SDS011;1913;50.660;7.834;2023-02-26T16:38:59;3.53;;;1.43;;
3795;SDS011;1913;50.660;7.834;2023-02-26T16:41:32;1.67;;;1.00;;
3795;SDS011;1913;50.660;7.834;2023-02-26T16:44:01;3.57;;;1.53;;
3795;SDS011;1913;50.660;7.834;2023-02-26T16:46:43;3.00;;;1.10;;
3795;SDS011;1913;50.660;7.834;2023-02-26T16:49:20;1.80;;;1.20;;
3795;SDS011;1913;50.660;7.834;2023-02-26T16:51:55;2.70;;;0.90;;
3795;SDS011;1913;50.660;7.834;2023-02-26T16:54:28;2.67;;;1.83;;
3795;SDS011;1913;50.660;7.834;2023-02-26T17:00:04;2.70;;;1.23;;
3795;SDS011;1913;50.660;7.834;2023-02-26T17:02:36;2.93;;;1.20;;
3795;SDS011;1913;50.660;7.834;2023-02-26T17:05:19;2.07;;;1.50;;
3795;SDS011;1913;50.660;7.834;2023-02-26T17:10:54;3.00;;;1.30;;
3795;SDS011;1913;50.660;7.834;2023-02-26T17:13:33;4.10;;;1.43;;
3795;SDS011;1913;50.660;7.834;2023-02-26T17:16:07;1.47;;;1.37;;
3795;SDS011;1913;50.660;7.834;2023-02-26T17:18:35;1.80;;;1.20;;
3795;SDS011;1913;50.660;7.834;2023-02-26T17:21:00;3.97;;;1.40;;
3795;SDS011;1913;50.660;7.834;2023-02-26T17:23:29;2.50;;;1.57;;
3795;SDS011;1913;50.660;7.834;2023-02-26T17:25:57;1.87;;;1.53;;
3795;SDS011;1913;50.660;7.834;2023-02-26T17:28:28;4.50;;;1.40;;
3795;SDS011;1913;50.660;7.834;2023-02-26T17:30:58;1.83;;;1.10;;
3795;SDS011;1913;50.660;7.834;2023-02-26T17:33:24;13.50;;;6.07;;
3795;SDS011;1913;50.660;7.834;2023-02-26T17:35:49;5.50;;;2.33;;
3795;SDS011;1913;50.660;7.834;2023-02-26T17:38:17;5.47;;;1.90;;
3795;SDS011;1913;50.660;7.834;2023-02-26T17:40:43;2.60;;;1.33;;
3795;SDS011;1913;50.660;7.834;2023-02-26T17:43:11;3.00;;;1.83;;
3795;SDS011;1913;50.660;7.834;2023-02-26T17:45:38;2.70;;;1.30;;
3795;SDS011;1913;50.660;7.834;2023-02-26T17:48:04;1.90;;;1.70;;
3795;SDS011;1913;50.660;7.834;2023-02-26T17:50:41;4.47;;;1.37;;
3795;SDS011;1913;50.660;7.834;2023-02-26T17:53:17;3.83;;;1.70;;
3795;SDS011;1913;50.660;7.834;2023-02-26T17:55:44;2.60;;;1.53;;
3795;SDS011;1913;50.660;7.834;2023-02-26T17:58:27;2.27;;;1.50;;
3795;SDS011;1913;50.660;7.834;2023-02-26T18:00:56;3.23;;;1.93;;
3795;SDS011;1913;50.660;7.834;2023-02-26T18:03:21;3.20;;;2.00;;
3795;SDS011;1913;50.660;7.834;2023-02-26T18:05:47;2.30;;;1.67;;
3795;SDS011;1913;50.660;7.834;2023-02-26T18:10:53;2.60;;;1.73;;
3795;SDS011;1913;50.660;7.834;2023-02-26T18:13:19;10.40;;;3.03;;
3795;SDS011;1913;50.660;7.834;2023-02-26T18:15:46;7.07;;;2.80;;
3795;SDS011;1913;50.660;7.834;2023-02-26T18:18:13;5.50;;;3.23;;
3795;SDS011;1913;50.660;7.834;2023-02-26T18:20:39;7.53;;;4.37;;
3795;SDS011;1913;50.660;7.834;2023-02-26T18:23:05;6.80;;;3.60;;
3795;SDS011;1913;50.660;7.834;2023-02-26T18:25:33;5.73;;;3.30;;
3795;SDS011;1913;50.660;7.834;2023-02-26T18:28:03;7.23;;;2.50;;
3795;SDS011;1913;50.660;7.834;2023-02-26T18:30:33;6.70;;;3.80;;
3795;SDS011;1913;50.660;7.834;2023-02-26T18:33:02;5.17;;;2.60;;
3795;SDS011;1913;50.660;7.834;2023-02-26T18:35:27;2.90;;;2.37;;
3795;SDS011;1913;50.660;7.834;2023-02-26T18:37:57;3.63;;;1.90;;
3795;SDS011;1913;50.660;7.834;2023-02-26T18:40:23;3.40;;;2.50;;
3795;SDS011;1913;50.660;7.834;2023-02-26T18:42:50;6.60;;;3.47;;